Washington, TX (77880)

8:23 AM CDT on May 22, 2015 (GMT -0500)
COLE'S CREEK | | Change Station
CLOSE
Current Station
Personal Weather Station
Location: WASHINGTON, TX
Elevation: 259 ft
Nearby Weather Stations

Elev 259 ft 30.34 °N, 96.18 °W | Updated 35 seconds ago

Overcast
Overcast
68.2 °F
Feels Like 68.2 °F
N
4.3
Wind Variable Wind from SE
Gusts 8.3 mph

Today
High -- | Low -- °F
--% Chance of Precip.
Yesterday
High -- | Low -- °F
Precip. -- in
6:27 AM 8:16 PM
Waxing Crescent, 21% visible
Pressure 30.13 in
Visibility 10.0 miles
Clouds Overcast 1200 ft
Dew Point 62 °F
Humidity 80%
Rainfall 0.00 in
Snow Depth Not available.
UV 1 out of 12
Pollen 3.80 out of 12
Air Quality Not available.
Flu Activity Sporadic
METAR K11R 221315Z AUTO 09006KT 10SM OVC012 22/20 A3013 RMK AO2 T02150196

More Conditions Fewer Conditions

Pressure 30.13 in
Visibility 10.0 miles
Clouds Overcast 1200 ft
Dew Point 62 °F
Humidity 80%
Rainfall 0.00 in
Snow Depth Not available.
UV 1 out of 12
Pollen 3.80 out of 12
Air Quality Not available.
Flu Activity Sporadic
METAR K11R 221315Z AUTO 09006KT 10SM OVC012 22/20 A3013 RMK AO2 T02150196

More Conditions Fewer Conditions

10-Day Weather Forecast

Almanac

Astronomy

May. 22, 2015 Rise Set
Actual Time
Civil Twilight
Nautical Twilight
Astronomical Twilight
Moon
Length of Visible Light
Length of Day
Tomorrow will be .
, % of the Moon is Illuminated

Today's Extremes

State Highs State Lows

Community

WunderPhotos

Upload Photos

1,823,208 photos uploaded!

WunderBlogs® & News

Nearby

Air Quality

  Air Quality AQ Index Pollutant
Not available.

Snow Depth

Station Depth Elevation

Earthquake Activity

City Distance Mag. Time & Date
Minimum magnitude displayed is 2.5.

Coastal Water Temperatures

Place Temperature

Stations

Nearby Weather Stations

Station Location Temp. Windchill Dew Point Humidity Wind Precip. Elev Updated Type